Time;durP1;ratioP1;P1;durP2;ratioP2;P2;SDS_P1;SDS_P2;PMS_P1;PMS_P2;Temp;Humidity;BMP_temperature;BMP_pressure;BME280_temperature;BME280_humidity;BME280_pressure;Samples;Min_cycle;Max_cycle;Signal;HPM_P1;HPM_P2
2020/12/15 00:01:31;;;;;;;38.90;14.02;;;;;;;2.21;89.76;100890.81;4975866;28;20089;-75
2020/12/15 00:03:56;;;;;;;27.95;12.55;;;;;;;2.39;89.00;100921.22;4976296;28;20077;-77
2020/12/15 00:06:21;;;;;;;29.15;12.73;;;;;;;2.28;88.90;100910.88;4958239;28;20042;-77
2020/12/15 00:08:47;;;;;;;29.60;13.27;;;;;;;2.22;88.77;100884.66;4975475;28;20038;-76
2020/12/15 00:11:19;;;;;;;35.17;13.93;;;;;;;2.41;89.38;100915.94;4958247;28;20051;-77
2020/12/15 00:13:45;;;;;;;36.22;14.25;;;;;;;2.21;89.17;100882.91;4976057;28;20082;-78
2020/12/15 00:16:16;;;;;;;28.90;13.25;;;;;;;2.37;88.88;100903.72;4975950;28;20141;-77
2020/12/15 00:18:41;;;;;;;30.92;13.85;;;;;;;2.23;88.71;100873.25;4958853;28;20039;-76
2020/12/15 00:21:07;;;;;;;24.30;12.20;;;;;;;2.40;88.40;100912.44;4958649;28;20038;-76
2020/12/15 00:23:32;;;;;;;30.45;13.05;;;;;;;2.19;88.73;100884.69;4974402;28;20465;-78
2020/12/15 00:25:57;;;;;;;25.17;11.98;;;;;;;2.29;88.76;100903.84;4975730;28;20502;-74
2020/12/15 00:28:23;;;;;;;27.38;12.35;;;;;;;2.39;88.60;100913.34;4975707;28;20046;-76
2020/12/15 00:30:48;;;;;;;27.80;12.02;;;;;;;2.15;88.55;100869.00;4975613;28;20027;-77
2020/12/15 00:33:14;;;;;;;27.67;12.27;;;;;;;2.14;88.49;100873.38;4975903;28;20042;-76
2020/12/15 00:35:39;;;;;;;27.23;12.27;;;;;;;2.25;88.13;100875.84;4974604;28;20031;-77
2020/12/15 00:38:04;;;;;;;28.08;13.57;;;;;;;2.36;88.67;100909.91;4974211;28;20066;-76
2020/12/15 00:40:29;;;;;;;29.75;12.63;;;;;;;2.19;88.90;100878.56;4957906;28;20085;-76
2020/12/15 00:42:55;;;;;;;32.28;15.02;;;;;;;2.28;89.19;100905.63;4958107;28;20039;-75
2020/12/15 00:45:20;;;;;;;31.15;13.65;;;;;;;2.19;89.18;100900.50;4973808;28;20046;-76
2020/12/15 00:47:46;;;;;;;31.40;14.20;;;;;;;2.27;89.29;100906.50;4975404;28;20046;-75
2020/12/15 00:50:12;;;;;;;28.48;13.70;;;;;;;2.27;89.34;100909.13;4957868;28;20066;-76
2020/12/15 00:52:38;;;;;;;28.20;13.25;;;;;;;2.27;88.65;100913.53;4975031;28;20089;-76
2020/12/15 00:55:03;;;;;;;30.70;13.85;;;;;;;2.24;88.68;100898.66;4973711;28;20058;-77
2020/12/15 00:57:29;;;;;;;29.85;13.02;;;;;;;2.15;88.55;100903.22;4974880;28;20031;-75
2020/12/15 00:59:55;;;;;;;29.15;12.73;;;;;;;2.15;88.91;100900.56;4975255;28;20069;-79
2020/12/15 01:02:20;;;;;;;32.15;14.02;;;;;;;2.23;88.99;100911.84;4957577;28;20042;-78
2020/12/15 01:04:46;;;;;;;32.70;14.30;;;;;;;2.05;89.06;100875.28;4973932;28;20039;-78
2020/12/15 01:07:12;;;;;;;31.77;14.40;;;;;;;2.24;89.35;100906.56;4974101;28;20031;-79
2020/12/15 01:09:37;;;;;;;32.63;14.35;;;;;;;2.26;89.19;100885.47;4974562;28;20400;-78
2020/12/15 01:12:15;;;;;;;32.53;14.25;;;;;;;2.40;88.52;100896.63;4974010;28;20463;-79
2020/12/15 01:14:40;;;;;;;29.83;13.20;;;;;;;2.37;88.25;100898.47;4973403;28;20023;-78
2020/12/15 01:17:07;;;;;;;34.50;13.55;;;;;;;2.29;88.20;100899.44;4957479;28;20069;-77
2020/12/15 01:19:32;;;;;;;35.58;14.27;;;;;;;2.25;88.88;100899.53;4973000;28;20137;-78
2020/12/15 01:21:58;;;;;;;37.63;15.65;;;;;;;2.01;89.01;100859.53;4974998;28;20106;-77
2020/12/15 01:24:25;;;;;;;37.28;15.02;;;;;;;2.28;88.93;100894.22;4974461;28;20030;-79
2020/12/15 01:26:51;;;;;;;37.88;15.23;;;;;;;2.18;88.97;100898.75;4957801;28;20042;-76
2020/12/15 01:29:16;;;;;;;31.70;13.85;;;;;;;1.97;88.37;100849.09;4974784;28;20035;-75
2020/12/15 01:31:42;;;;;;;28.02;12.18;;;;;;;2.06;88.17;100885.78;4974200;28;20427;-78
2020/12/15 01:34:07;;;;;;;29.27;12.20;;;;;;;2.08;87.84;100894.53;4973674;28;20034;-78
2020/12/15 01:36:32;;;;;;;32.20;13.23;;;;;;;2.13;88.18;100884.81;4974451;28;20034;-77
2020/12/15 01:38:59;;;;;;;32.58;12.85;;;;;;;2.16;88.38;100894.41;4973490;28;20393;-78
2020/12/15 01:41:24;;;;;;;31.48;11.95;;;;;;;2.22;88.18;100895.19;4972987;28;20075;-78
2020/12/15 01:43:55;;;;;;;33.45;14.38;;;;;;;2.24;88.40;100888.13;4974418;28;20058;-78
2020/12/15 01:46:21;;;;;;;36.92;15.27;;;;;;;2.18;88.78;100890.84;4973184;28;20026;-79
2020/12/15 01:48:47;;;;;;;35.50;14.32;;;;;;;2.09;89.02;100900.66;4973175;28;20035;-79
2020/12/15 01:51:13;;;;;;;41.40;16.13;;;;;;;2.20;88.91;100904.84;4974531;28;20121;-77
2020/12/15 01:53:38;;;;;;;39.60;16.35;;;;;;;2.20;89.59;100907.50;4957027;28;20034;-79
2020/12/15 01:56:03;;;;;;;42.47;17.23;;;;;;;1.90;89.15;100861.47;4957443;28;20499;-78
2020/12/15 01:58:29;;;;;;;37.63;15.88;;;;;;;2.05;89.45;100894.59;4973008;28;20031;-78
2020/12/15 02:00:54;;;;;;;34.38;14.85;;;;;;;2.10;89.23;100895.38;4974180;28;20142;-78
2020/12/15 02:03:20;;;;;;;40.72;15.77;;;;;;;1.93;88.61;100871.06;4956997;28;20042;-77
2020/12/15 02:05:45;;;;;;;42.00;15.50;;;;;;;2.11;89.13;100906.75;4973988;28;20038;-78
2020/12/15 02:08:11;;;;;;;39.95;15.45;;;;;;;1.99;89.28;100892.91;4973167;28;20031;-78
2020/12/15 02:10:37;;;;;;;39.15;15.82;;;;;;;2.10;89.51;100898.00;4972698;28;20031;-78
2020/12/15 02:13:02;;;;;;;39.22;15.10;;;;;;;2.06;89.43;100885.78;4972815;28;20031;-77
2020/12/15 02:15:28;;;;;;;43.85;16.58;;;;;;;2.11;89.63;100890.97;4972723;28;20130;-77
2020/12/15 02:17:53;;;;;;;48.10;17.70;;;;;;;1.94;90.08;100878.09;4973936;28;20066;-77
2020/12/15 02:20:19;;;;;;;52.03;19.88;;;;;;;1.90;90.12;100861.47;4956577;28;20110;-75
2020/12/15 02:22:44;;;;;;;48.78;18.58;;;;;;;2.05;90.35;100891.94;4973609;28;20538;-77
2020/12/15 02:25:09;;;;;;;52.55;19.05;;;;;;;1.94;90.68;100870.19;4972855;28;20596;-78
2020/12/15 02:27:35;;;;;;;51.05;18.00;;;;;;;2.06;90.32;100879.66;4972675;28;20031;-77
2020/12/15 02:30:00;;;;;;;48.15;16.92;;;;;;;1.91;90.76;100884.25;4972907;28;20405;-78
2020/12/15 02:32:26;;;;;;;47.47;18.38;;;;;;;1.97;90.99;100888.56;4972590;28;20049;-74
2020/12/15 02:34:58;;;;;;;46.97;17.98;;;;;;;1.92;90.50;100885.13;4977789;28;20178;-77
2020/12/15 02:37:23;;;;;;;56.08;19.35;;;;;;;1.93;91.16;100893.00;4977394;28;20062;-78
2020/12/15 02:39:49;;;;;;;52.35;19.30;;;;;;;1.73;91.02;100848.56;4976748;28;20141;-76
2020/12/15 02:42:14;;;;;;;52.42;18.52;;;;;;;1.87;91.26;100869.41;4976670;28;20043;-77
2020/12/15 02:44:40;;;;;;;46.33;18.55;;;;;;;2.18;90.80;100888.22;4976152;28;20571;-78
2020/12/15 02:47:05;;;;;;;45.58;16.70;;;;;;;2.18;89.68;100882.97;4977941;28;20031;-78
2020/12/15 02:49:31;;;;;;;49.40;17.52;;;;;;;2.07;88.84;100874.38;4976077;28;20455;-77
2020/12/15 02:51:56;;;;;;;45.53;16.83;;;;;;;1.86;89.77;100853.66;4976925;28;20039;-77
2020/12/15 02:54:22;;;;;;;50.38;19.05;;;;;;;1.93;90.62;100892.09;4977524;28;20143;-78
2020/12/15 02:56:47;;;;;;;54.55;18.70;;;;;;;1.73;90.98;100869.59;4976298;28;20030;-75
2020/12/15 02:59:12;;;;;;;51.85;19.10;;;;;;;2.01;90.72;100906.03;4977695;28;20073;-75
2020/12/15 03:01:39;;;;;;;48.80;18.42;;;;;;;2.04;90.94;100894.59;4977383;28;20031;-74
2020/12/15 03:04:05;;;;;;;57.33;19.42;;;;;;;1.93;90.88;100881.59;4978138;28;20031;-74
2020/12/15 03:06:30;;;;;;;54.78;18.25;;;;;;;1.87;91.25;100886.97;4977589;28;20469;-76
2020/12/15 03:08:56;;;;;;;56.28;19.38;;;;;;;1.84;91.73;100892.28;4960158;28;20105;-74
2020/12/15 03:11:22;;;;;;;55.75;18.25;;;;;;;1.95;91.63;100903.50;4976274;28;20366;-75
2020/12/15 03:13:48;;;;;;;51.47;18.45;;;;;;;1.82;91.48;100872.97;4976161;28;20035;-76
2020/12/15 03:16:13;;;;;;;52.83;18.70;;;;;;;2.03;91.35;100898.09;4976301;28;20035;-76
2020/12/15 03:18:39;;;;;;;49.53;17.65;;;;;;;2.04;91.28;100898.09;4975991;28;20043;-75
2020/12/15 03:21:07;;;;;;;54.33;18.58;;;;;;;1.90;91.67;100879.00;4959764;28;20070;-76
2020/12/15 03:23:33;;;;;;;51.20;18.08;;;;;;;1.88;90.63;100846.59;4975578;28;20031;-75
2020/12/15 03:25:58;;;;;;;52.17;18.63;;;;;;;1.75;91.11;100842.44;4975829;28;20125;-75
2020/12/15 03:28:24;;;;;;;54.50;19.65;;;;;;;1.98;90.97;100887.66;4959437;28;20112;-74
2020/12/15 03:30:49;;;;;;;51.72;18.35;;;;;;;2.09;91.19;100912.06;4975311;28;20043;-74
2020/12/15 03:33:15;;;;;;;46.20;17.38;;;;;;;2.19;90.63;100915.41;4976793;28;20039;-75
2020/12/15 03:35:41;;;;;;;49.55;17.55;;;;;;;2.22;89.92;100913.63;4975414;28;20042;-75
2020/12/15 03:38:06;;;;;;;43.58;16.55;;;;;;;2.29;88.86;100909.13;4975504;28;20385;-75
2020/12/15 03:40:31;;;;;;;44.17;16.50;;;;;;;2.27;89.15;100911.78;4974997;28;20027;-77
2020/12/15 03:42:57;;;;;;;51.47;17.63;;;;;;;2.19;90.00;100911.03;4976460;28;20038;-77
2020/12/15 03:45:22;;;;;;;44.88;17.25;;;;;;;2.26;89.92;100909.16;4975117;28;20034;-75
2020/12/15 03:47:47;;;;;;;48.33;17.63;;;;;;;1.93;89.98;100865.81;4958733;28;20370;-77
2020/12/15 03:50:13;;;;;;;50.45;18.27;;;;;;;2.06;90.55;100890.19;4976288;28;20377;-76
2020/12/15 03:52:38;;;;;;;47.17;18.33;;;;;;;2.06;91.10;100901.59;4958754;28;20129;-75
2020/12/15 03:55:05;;;;;;;49.97;18.48;;;;;;;1.99;90.60;100882.38;4976054;28;20063;-75
2020/12/15 03:57:30;;;;;;;45.75;17.75;;;;;;;2.07;90.83;100918.25;4976148;28;20038;-79
2020/12/15 03:59:56;;;;;;;49.08;18.42;;;;;;;2.08;90.63;100928.75;4976392;28;20035;-77
2020/12/15 04:02:22;;;;;;;48.97;19.05;;;;;;;2.00;91.35;100914.81;4976318;28;20031;-78
2020/12/15 04:04:47;;;;;;;50.38;17.65;;;;;;;2.13;90.53;100916.41;4976033;28;20097;-78
2020/12/15 04:07:12;;;;;;;50.22;17.10;;;;;;;2.04;90.96;100921.78;4975115;28;20037;-77
2020/12/15 04:09:38;;;;;;;50.58;17.50;;;;;;;1.99;91.22;100923.59;4958719;28;20035;-77
2020/12/15 04:12:03;;;;;;;46.33;16.98;;;;;;;2.15;90.46;100914.59;4976080;28;20114;-77
2020/12/15 04:14:29;;;;;;;49.80;19.02;;;;;;;2.12;90.14;100925.16;4976112;28;20062;-81
2020/12/15 04:16:54;;;;;;;50.83;18.40;;;;;;;2.11;90.69;100928.69;4958999;28;20031;-77
2020/12/15 04:19:19;;;;;;;49.53;18.98;;;;;;;1.84;91.49;100893.13;4974995;28;20396;-78
2020/12/15 04:21:45;;;;;;;58.63;19.38;;;;;;;2.13;90.91;100928.69;4958446;28;20034;-78
2020/12/15 04:24:10;;;;;;;51.38;18.35;;;;;;;2.23;90.58;100930.28;4958840;28;20069;-77
2020/12/15 04:26:36;;;;;;;51.97;18.38;;;;;;;2.12;90.30;100917.25;4974337;28;20546;-79
2020/12/15 04:29:01;;;;;;;49.55;17.58;;;;;;;2.05;90.67;100926.16;4974656;28;20038;-78
2020/12/15 04:31:30;;;;;;;53.67;19.38;;;;;;;1.98;90.84;100911.34;4975992;28;20395;-74
2020/12/15 04:33:55;;;;;;;53.72;19.13;;;;;;;1.81;90.21;100866.84;4975466;28;20500;-74
2020/12/15 04:36:21;;;;;;;49.80;17.65;;;;;;;2.09;91.26;100927.84;4975650;28;20121;-74
2020/12/15 04:38:46;;;;;;;49.17;17.38;;;;;;;2.19;90.28;100928.56;4973905;28;20392;-74
2020/12/15 04:41:12;;;;;;;47.72;18.05;;;;;;;2.20;89.84;100923.28;4975314;28;20035;-75
2020/12/15 04:43:40;;;;;;;51.65;18.52;;;;;;;2.13;90.48;100919.03;4974981;28;20474;-74
2020/12/15 04:46:11;;;;;;;46.90;18.15;;;;;;;2.20;90.31;100918.00;4975408;28;20464;-74
2020/12/15 04:48:43;;;;;;;50.50;19.67;;;;;;;2.20;90.73;100930.31;4973837;28;20043;-74
2020/12/15 04:51:12;;;;;;;53.22;19.25;;;;;;;2.15;90.99;100929.53;4975389;28;20035;-79
2020/12/15 04:53:44;;;;;;;49.33;18.58;;;;;;;2.27;89.65;100919.66;4974722;28;20042;-78
2020/12/15 04:56:26;;;;;;;49.97;17.67;;;;;;;2.08;89.82;100918.22;4973374;28;20035;-78
2020/12/15 04:58:56;;;;;;;48.80;16.92;;;;;;;2.19;90.19;100937.34;4975103;28;20451;-78
2020/12/15 05:01:22;;;;;;;45.60;16.60;;;;;;;2.26;89.85;100933.72;4975196;28;20027;-76
2020/12/15 05:03:50;;;;;;;48.17;17.50;;;;;;;2.07;90.17;100929.63;4974938;28;20097;-79
2020/12/15 05:06:16;;;;;;;47.38;16.70;;;;;;;2.30;89.59;100948.56;4975031;28;20046;-77
2020/12/15 05:08:47;;;;;;;43.42;16.52;;;;;;;2.30;89.45;100945.94;4974604;28;20039;-78
2020/12/15 05:11:12;;;;;;;47.40;16.77;;;;;;;2.07;89.25;100895.41;4957835;28;20027;-75
2020/12/15 05:13:38;;;;;;;47.78;18.08;;;;;;;2.06;88.84;100895.44;4973405;28;20058;-77
2020/12/15 05:16:03;;;;;;;51.15;17.38;;;;;;;2.26;89.72;100953.91;4974945;28;20031;-77
2020/12/15 05:18:29;;;;;;;55.20;19.50;;;;;;;1.94;90.38;100926.31;4957580;28;20488;-78
2020/12/15 05:20:54;;;;;;;46.33;17.77;;;;;;;2.06;90.97;100945.44;4974437;28;20041;-78
2020/12/15 05:23:20;;;;;;;51.30;17.20;;;;;;;2.24;90.11;100946.06;4974868;28;20058;-75
2020/12/15 05:25:46;;;;;;;48.17;18.25;;;;;;;2.23;89.87;100953.97;4973236;28;20069;-78
2020/12/15 05:28:13;;;;;;;48.92;18.08;;;;;;;2.14;90.10;100948.84;4973609;28;20043;-77
2020/12/15 05:30:38;;;;;;;51.35;18.42;;;;;;;2.04;90.99;100961.25;4973164;28;20129;-75
2020/12/15 05:33:13;;;;;;;50.47;17.73;;;;;;;2.05;91.54;100954.25;4974541;28;20120;-77
2020/12/15 05:35:38;;;;;;;51.72;17.38;;;;;;;1.88;91.27;100920.25;4974176;28;20034;-76
2020/12/15 05:38:05;;;;;;;47.22;17.65;;;;;;;2.12;91.52;100956.72;4974472;28;20380;-76
2020/12/15 05:40:32;;;;;;;56.40;18.63;;;;;;;2.03;91.59;100946.38;4974751;28;20063;-76
2020/12/15 05:43:02;;;;;;;46.92;16.23;;;;;;;2.27;90.38;100956.53;4940927;28;20057;-76
2020/12/15 05:45:32;;;;;;;45.92;15.95;;;;;;;2.14;90.21;100960.25;4973289;28;20064;-76
2020/12/15 05:48:08;;;;;;;49.60;16.10;;;;;;;2.05;90.93;100962.13;4974231;28;20042;-77
2020/12/15 05:50:35;;;;;;;45.72;16.73;;;;;;;2.00;91.62;100967.44;4973395;28;20035;-78
2020/12/15 05:53:06;;;;;;;46.13;16.45;;;;;;;1.94;91.89;100968.41;4974264;28;20031;-78
2020/12/15 05:55:32;;;;;;;49.70;17.52;;;;;;;2.06;91.72;100969.13;4974156;28;20058;-77
2020/12/15 05:57:59;;;;;;;47.88;17.08;;;;;;;1.96;92.10;100955.22;4972633;28;20436;-78
2020/12/15 06:00:28;;;;;;;45.13;16.58;;;;;;;1.97;92.04;100962.22;4956947;28;20037;-78
2020/12/15 06:03:02;;;;;;;46.10;17.30;;;;;;;1.99;91.64;100963.94;4973969;28;20054;-73
2020/12/15 06:05:29;;;;;;;45.03;15.52;;;;;;;2.07;91.60;100962.97;4957149;28;20094;-76
2020/12/15 06:07:56;;;;;;;44.58;16.48;;;;;;;2.15;90.64;100971.63;4973060;28;20392;-75
2020/12/15 06:10:23;;;;;;;47.17;16.10;;;;;;;2.19;90.39;100968.91;4974249;28;20027;-76
2020/12/15 06:12:50;;;;;;;43.08;16.40;;;;;;;2.08;90.09;100959.44;4973776;28;20039;-76
2020/12/15 06:15:16;;;;;;;41.70;14.85;;;;;;;2.12;89.52;100961.13;4973822;28;20433;-75
2020/12/15 06:17:46;;;;;;;41.58;15.27;;;;;;;2.04;89.42;100969.16;4973892;28;20053;-76
2020/12/15 06:20:12;;;;;;;38.88;14.10;;;;;;;2.01;89.37;100963.91;4974196;28;20023;-75
2020/12/15 06:22:37;;;;;;;38.03;13.07;;;;;;;2.06;89.16;100958.59;4973722;28;20042;-77
2020/12/15 06:25:03;;;;;;;38.38;14.05;;;;;;;1.69;88.82;100946.81;4956644;28;20031;-77
2020/12/15 06:27:36;;;;;;;36.25;12.85;;;;;;;1.81;89.33;100961.56;4973836;28;20037;-77
2020/12/15 06:30:06;;;;;;;41.90;14.45;;;;;;;1.65;89.85;100950.38;4974203;28;20050;-79
2020/12/15 06:32:31;;;;;;;38.28;13.65;;;;;;;1.79;89.74;100941.44;4973878;28;20034;-76
2020/12/15 06:34:57;;;;;;;36.03;12.88;;;;;;;1.82;88.75;100947.50;4972521;28;20185;-77
2020/12/15 06:37:24;;;;;;;37.67;14.00;;;;;;;2.08;89.40;100985.75;4973944;28;20063;-75
2020/12/15 06:40:00;;;;;;;38.63;13.80;;;;;;;2.10;89.20;100984.84;4973508;28;20031;-76
2020/12/15 06:42:27;;;;;;;38.97;14.13;;;;;;;2.11;89.55;100986.59;4972738;28;20081;-74
2020/12/15 06:45:07;;;;;;;43.15;14.80;;;;;;;1.97;89.74;100951.72;4972765;28;20066;-74
2020/12/15 06:47:36;;;;;;;40.05;13.02;;;;;;;2.17;89.34;100981.25;4973318;28;20122;-76
2020/12/15 06:50:09;;;;;;;40.35;13.93;;;;;;;2.07;89.20;100952.44;4973647;28;20054;-77
2020/12/15 06:52:35;;;;;;;;;;;;;;;2.25;89.20;100974.13;4974188;28;20039;-75
2020/12/15 06:55:00;;;;;;;32.88;11.93;;;;;;;2.25;88.17;100963.59;4973259;28;19985;-77
2020/12/15 06:57:37;;;;;;;37.05;12.77;;;;;;;2.25;88.64;100950.41;4974039;28;20444;-75
2020/12/15 07:00:08;;;;;;;32.97;12.43;;;;;;;2.33;87.71;100965.25;4973422;28;20031;-72
2020/12/15 07:02:33;;;;;;;30.13;11.30;;;;;;;2.25;88.04;100965.34;4973916;28;20052;-72
2020/12/15 07:05:20;;;;;;;37.45;13.50;;;;;;;2.25;88.43;100958.31;4972402;28;20373;-71
2020/12/15 07:07:50;;;;;;;36.90;13.50;;;;;;;2.12;88.73;100938.31;4973701;28;20038;-71
2020/12/15 07:10:17;;;;;;;36.63;12.95;;;;;;;2.28;88.38;100952.13;4973712;28;20078;-74
2020/12/15 07:12:42;;;;;;;34.67;13.13;;;;;;;2.14;89.13;100939.19;4972342;28;20053;-80
2020/12/15 07:15:11;;;;;;;34.15;13.65;;;;;;;2.11;89.30;100948.88;4972510;28;20388;-72
2020/12/15 07:17:36;;;;;;;36.58;13.05;;;;;;;2.22;89.02;100955.75;4973399;28;20063;-72
2020/12/15 07:20:03;;;;;;;36.95;12.95;;;;;;;2.17;88.98;100944.41;4974356;28;20070;-72
2020/12/15 07:22:28;;;;;;;35.78;12.63;;;;;;;2.19;88.44;100947.88;4977112;28;20089;-70
2020/12/15 07:24:55;;;;;;;34.25;13.07;;;;;;;2.29;88.40;100965.25;4976498;28;20042;-72
2020/12/15 07:27:20;;;;;;;37.55;13.32;;;;;;;2.15;89.03;100963.75;4975961;28;20049;-72
2020/12/15 07:29:55;;;;;;;34.95;13.15;;;;;;;2.07;89.67;100965.59;4976288;28;20034;-73
2020/12/15 07:32:21;;;;;;;33.55;12.45;;;;;;;2.15;89.39;100963.75;4976872;28;20038;-74
2020/12/15 07:34:46;;;;;;;29.02;11.38;;;;;;;2.24;88.65;100966.25;4975648;28;20038;-71
2020/12/15 07:37:18;;;;;;;30.27;11.13;;;;;;;2.12;89.23;100954.09;4976910;28;20038;-71
2020/12/15 07:39:44;;;;;;;31.80;12.65;;;;;;;2.23;88.96;100968.00;4976599;28;20035;-73
2020/12/15 07:42:10;;;;;;;32.28;11.75;;;;;;;2.09;88.77;100948.03;4977331;28;20039;-72
2020/12/15 07:44:35;;;;;;;36.63;12.70;;;;;;;2.24;89.06;100982.91;4961088;28;20042;-73
2020/12/15 07:47:01;;;;;;;31.90;12.18;;;;;;;2.03;89.23;100946.38;4976262;28;20035;-73
2020/12/15 07:49:27;;;;;;;31.58;11.25;;;;;;;1.99;89.57;100940.25;4976368;28;20126;-73
2020/12/15 07:51:53;;;;;;;33.80;12.05;;;;;;;2.28;89.46;100984.59;4975133;28;20404;-72
2020/12/15 07:54:19;;;;;;;32.47;11.77;;;;;;;2.15;89.62;100988.28;4975028;28;20515;-72
2020/12/15 07:56:47;;;;;;;30.05;11.40;;;;;;;2.05;89.32;100957.75;4976157;28;20027;-74
2020/12/15 07:59:14;;;;;;;35.72;11.98;;;;;;;2.15;88.64;100988.28;4975341;28;20069;-71
2020/12/15 08:01:40;;;;;;;33.58;11.45;;;;;;;2.22;88.56;100995.22;4974862;28;20030;-72
2020/12/15 08:04:11;;;;;;;26.83;10.63;;;;;;;2.05;88.37;100960.38;4975710;28;20026;-72
2020/12/15 08:06:39;;;;;;;31.30;11.15;;;;;;;2.06;87.79;100955.97;4976176;28;20027;-72
2020/12/15 08:09:06;;;;;;;29.50;10.20;;;;;;;2.12;87.56;100980.41;4974732;28;20034;-72
2020/12/15 08:11:32;;;;;;;33.72;11.48;;;;;;;2.06;88.16;100977.91;4959192;28;20050;-71
2020/12/15 08:14:00;;;;;;;35.90;12.75;;;;;;;2.14;88.34;100991.81;4974799;28;20030;-72
2020/12/15 08:16:26;;;;;;;32.58;11.18;;;;;;;2.19;87.46;100989.13;4976120;28;20026;-71
2020/12/15 08:19:03;;;;;;;33.22;12.75;;;;;;;1.86;87.70;100948.34;4974618;28;20046;-71
2020/12/15 08:21:45;;;;;;;32.78;12.70;;;;;;;2.12;89.05;100996.22;4976219;28;20029;-71
2020/12/15 08:24:13;;;;;;;32.53;11.65;;;;;;;2.04;88.31;100979.69;4975996;28;20031;-72
2020/12/15 08:26:42;;;;;;;32.90;12.65;;;;;;;2.21;88.72;101018.91;4975745;28;20034;-71
2020/12/15 08:29:12;;;;;;;36.22;12.30;;;;;;;2.18;89.10;101025.09;4975761;28;20038;-71
2020/12/15 08:31:40;;;;;;;32.35;12.48;;;;;;;2.09;89.40;101011.19;4974757;28;20531;-72
2020/12/15 08:34:20;;;;;;;32.53;11.75;;;;;;;2.19;89.45;101032.09;4975333;28;20034;-72
2020/12/15 08:36:50;;;;;;;36.88;11.98;;;;;;;2.24;88.47;101032.91;4975601;28;20035;-71
2020/12/15 08:39:27;;;;;;;29.88;11.10;;;;;;;2.21;87.80;101018.91;4975708;28;20117;-71
2020/12/15 08:41:57;;;;;;;29.23;11.73;;;;;;;2.20;88.04;101018.03;4975261;28;20528;-73
2020/12/15 08:44:24;;;;;;;30.33;11.73;;;;;;;2.18;88.88;101032.13;4975656;28;20038;-71
2020/12/15 08:46:54;;;;;;;31.20;11.50;;;;;;;2.21;88.86;101027.69;4975216;28;20041;-71
2020/12/15 08:49:20;;;;;;;32.78;12.13;;;;;;;2.06;87.94;101001.59;4958068;28;20378;-73
2020/12/15 08:51:50;;;;;;;28.98;12.30;;;;;;;2.27;87.58;101017.06;4975586;28;20153;-71
2020/12/15 08:54:17;;;;;;;29.83;11.68;;;;;;;1.92;88.22;100979.81;4958070;28;20526;-71
2020/12/15 08:56:43;;;;;;;33.58;11.77;;;;;;;2.24;89.23;101029.41;4974065;28;20469;-72
2020/12/15 08:59:13;;;;;;;29.80;11.43;;;;;;;2.29;88.77;101038.97;4957770;28;20039;-71
2020/12/15 09:01:39;;;;;;;31.20;11.63;;;;;;;2.41;88.25;101026.53;4975234;28;20038;-72
2020/12/15 09:04:05;;;;;;;30.40;11.82;;;;;;;2.49;87.94;101030.78;4957558;28;20053;-71
2020/12/15 09:06:34;;;;;;;29.85;11.55;;;;;;;2.48;86.43;101023.78;4974148;28;20038;-72
2020/12/15 09:09:00;;;;;;;28.23;11.02;;;;;;;2.35;87.00;101013.47;4975060;28;20041;-72
2020/12/15 09:11:26;;;;;;;29.02;11.15;;;;;;;2.13;86.69;100983.97;4975288;28;20468;-72
2020/12/15 09:14:00;;;;;;;30.73;11.90;;;;;;;2.11;87.24;100985.72;4974838;28;20106;-71
2020/12/15 09:16:29;;;;;;;30.30;11.48;;;;;;;2.43;87.56;101035.31;4974907;28;20440;-72
2020/12/15 09:18:56;;;;;;;31.10;11.98;;;;;;;2.16;86.64;100995.31;4973329;28;20473;-72
2020/12/15 09:21:21;;;;;;;34.45;12.60;;;;;;;2.22;87.69;101028.53;4973989;28;20130;-72
2020/12/15 09:23:48;;;;;;;32.63;12.30;;;;;;;2.21;88.50;101027.69;4974854;28;20532;-72
2020/12/15 09:26:14;;;;;;;30.13;11.82;;;;;;;2.19;88.87;101031.22;4974587;28;20451;-73
2020/12/15 09:28:40;;;;;;;32.92;11.93;;;;;;;2.22;88.27;101020.66;4974934;28;20037;-73
2020/12/15 09:31:05;;;;;;;32.33;12.60;;;;;;;1.97;87.79;100991.19;4957124;28;20035;-72
2020/12/15 09:33:30;;;;;;;31.15;11.80;;;;;;;2.04;88.07;101013.91;4974619;28;20097;-71
2020/12/15 09:35:56;;;;;;;31.42;11.63;;;;;;;2.32;87.99;101039.81;4973606;28;20039;-72
2020/12/15 09:38:21;;;;;;;34.28;12.07;;;;;;;2.19;87.91;101032.09;4975458;28;20066;-71
2020/12/15 09:40:47;;;;;;;29.70;10.75;;;;;;;2.22;87.34;101032.06;4975920;28;20060;-72
2020/12/15 09:43:12;;;;;;;31.77;10.40;;;;;;;2.19;87.64;101037.38;4974821;28;20396;-73
2020/12/15 09:45:38;;;;;;;31.67;10.95;;;;;;;2.09;87.79;101012.06;4974816;28;20484;-72
2020/12/15 09:48:03;;;;;;;28.55;10.45;;;;;;;1.84;88.21;100961.53;4973377;28;20039;-72
2020/12/15 09:50:34;;;;;;;32.67;12.80;;;;;;;1.90;88.70;100966.69;4973225;28;20069;-72
2020/12/15 09:52:59;;;;;;;31.48;11.73;;;;;;;2.16;88.60;101016.34;4974452;28;20042;-72
2020/12/15 09:55:25;;;;;;;31.38;11.32;;;;;;;2.21;87.96;100993.44;4950855;28;20051;-71
2020/12/15 09:57:50;;;;;;;31.60;11.55;;;;;;;2.20;88.10;101012.78;4950800;29;20386;-72
2020/12/15 10:00:15;;;;;;;34.33;12.20;;;;;;;2.08;88.10;101012.09;4934218;29;20126;-72
2020/12/15 10:02:41;;;;;;;31.85;11.30;;;;;;;2.24;87.74;101029.41;4934671;29;20047;-71
2020/12/15 10:05:10;;;;;;;35.97;11.95;;;;;;;2.21;88.10;101027.69;4935580;29;20050;-71
2020/12/15 10:07:36;;;;;;;31.67;11.68;;;;;;;1.97;88.11;100983.28;4936016;28;20382;-71
2020/12/15 10:10:02;;;;;;;32.10;11.43;;;;;;;2.07;87.80;100982.25;4935662;29;20040;-72
2020/12/15 10:12:27;;;;;;;29.38;10.13;;;;;;;2.27;88.28;101027.59;4936063;29;20058;-71
2020/12/15 10:14:53;;;;;;;29.10;11.23;;;;;;;2.26;87.89;101025.00;4934723;29;20239;-71
2020/12/15 10:17:18;;;;;;;29.92;11.57;;;;;;;2.27;87.63;101027.59;4934663;29;20050;-72
2020/12/15 10:19:44;;;;;;;28.35;10.52;;;;;;;2.25;87.66;101037.28;4936017;29;20047;-72
2020/12/15 10:22:09;;;;;;;26.48;9.85;;;;;;;2.33;87.50;101028.44;4935698;29;20036;-71
2020/12/15 10:24:35;;;;;;;24.33;9.80;;;;;;;2.21;87.51;101013.66;4934763;29;20033;-72
2020/12/15 10:27:00;;;;;;;25.27;9.82;;;;;;;2.28;87.11;101021.44;4935482;28;20059;-72
2020/12/15 10:29:29;;;;;;;25.17;9.70;;;;;;;1.99;86.98;100995.53;4935589;29;20044;-73
2020/12/15 10:31:55;;;;;;;27.80;8.98;;;;;;;2.10;87.36;101016.44;4934416;29;20090;-77
2020/12/15 10:34:20;;;;;;;24.38;9.52;;;;;;;1.91;87.90;100988.63;4935830;29;20118;-71
2020/12/15 10:36:49;;;;;;;22.58;9.15;;;;;;;2.00;87.55;101005.16;4934450;29;20032;-71
2020/12/15 10:39:15;;;;;;;20.17;8.02;;;;;;;2.03;87.85;101004.25;4935323;29;20284;-71
2020/12/15 10:41:41;;;;;;;21.77;7.90;;;;;;;2.24;87.24;101025.03;4934246;29;20549;-72
2020/12/15 10:44:14;;;;;;;23.30;8.65;;;;;;;2.13;87.55;101005.00;4935435;28;20087;-72
2020/12/15 10:46:40;;;;;;;22.05;9.05;;;;;;;2.24;87.22;101001.34;4934645;29;20047;-73
2020/12/15 10:49:05;;;;;;;26.92;10.27;;;;;;;2.24;87.69;101005.72;4935045;29;20044;-71
2020/12/15 10:51:30;;;;;;;23.42;9.02;;;;;;;2.37;87.96;101009.91;4903062;29;20043;-72
2020/12/15 10:53:56;;;;;;;22.33;8.15;;;;;;;2.42;87.12;101012.50;4940196;28;20471;-79
2020/12/15 10:56:22;;;;;;;24.13;9.23;;;;;;;2.07;87.96;100952.44;4976908;28;20551;-73
2020/12/15 10:58:48;;;;;;;20.95;8.73;;;;;;;2.25;87.37;100979.38;4978659;28;20396;-72
2020/12/15 11:01:13;;;;;;;22.63;9.40;;;;;;;2.29;87.53;100991.59;4986323;28;20046;-72
2020/12/15 11:03:39;;;;;;;23.38;9.15;;;;;;;2.21;87.80;100977.66;4979904;28;20042;-72
2020/12/15 11:06:04;;;;;;;23.75;9.30;;;;;;;2.34;88.45;101009.97;4977658;28;20051;-71
2020/12/15 11:08:30;;;;;;;22.85;9.35;;;;;;;2.40;88.09;101009.00;4977909;28;20038;-71
2020/12/15 11:10:55;;;;;;;24.05;8.98;;;;;;;2.20;87.86;100962.75;4960339;28;20443;-73
2020/12/15 11:13:21;;;;;;;27.98;9.50;;;;;;;2.19;88.18;100968.91;4977456;28;20043;-72
2020/12/15 11:15:47;;;;;;;23.30;8.48;;;;;;;2.39;88.24;100980.94;4977702;28;20082;-71
2020/12/15 11:18:12;;;;;;;24.90;9.05;;;;;;;2.44;88.43;101000.16;4977620;28;20448;-72